sensor_id;sensor_type;location;lat;lon;timestamp;P1;durP1;ratioP1;P2;durP2;ratioP2
49340;SDS011;35209;51.050;13.678;2023-04-22T00:03:42;10.13;;;6.68;;
49340;SDS011;35209;51.050;13.678;2023-04-22T00:08:45;7.47;;;6.78;;
49340;SDS011;35209;51.050;13.678;2023-04-22T00:13:47;7.75;;;7.05;;
49340;SDS011;35209;51.050;13.678;2023-04-22T00:18:49;8.23;;;6.20;;
49340;SDS011;35209;51.050;13.678;2023-04-22T00:23:51;7.75;;;7.00;;
49340;SDS011;35209;51.050;13.678;2023-04-22T00:28:56;14.05;;;7.88;;
49340;SDS011;35209;51.050;13.678;2023-04-22T00:33:59;7.88;;;7.07;;
49340;SDS011;35209;51.050;13.678;2023-04-22T00:39:01;9.68;;;6.63;;
49340;SDS011;35209;51.050;13.678;2023-04-22T00:44:03;13.07;;;7.57;;
49340;SDS011;35209;51.050;13.678;2023-04-22T00:49:06;7.85;;;7.15;;
49340;SDS011;35209;51.050;13.678;2023-04-22T00:54:08;10.27;;;7.03;;
49340;SDS011;35209;51.050;13.678;2023-04-22T00:59:10;9.45;;;7.05;;
49340;SDS011;35209;51.050;13.678;2023-04-22T01:04:12;8.10;;;7.40;;
49340;SDS011;35209;51.050;13.678;2023-04-22T01:09:17;11.45;;;7.28;;
49340;SDS011;35209;51.050;13.678;2023-04-22T01:14:21;8.70;;;7.93;;
49340;SDS011;35209;51.050;13.678;2023-04-22T01:19:23;7.68;;;6.88;;
49340;SDS011;35209;51.050;13.678;2023-04-22T01:24:26;7.80;;;6.97;;
49340;SDS011;35209;51.050;13.678;2023-04-22T01:29:29;14.25;;;7.97;;
49340;SDS011;35209;51.050;13.678;2023-04-22T01:34:31;8.60;;;7.75;;
49340;SDS011;35209;51.050;13.678;2023-04-22T01:39:34;9.10;;;7.90;;
49340;SDS011;35209;51.050;13.678;2023-04-22T01:44:36;8.63;;;7.57;;
49340;SDS011;35209;51.050;13.678;2023-04-22T01:49:37;9.05;;;8.25;;
49340;SDS011;35209;51.050;13.678;2023-04-22T01:54:40;8.68;;;7.93;;
49340;SDS011;35209;51.050;13.678;2023-04-22T01:59:43;8.52;;;7.82;;
49340;SDS011;35209;51.050;13.678;2023-04-22T02:04:45;9.07;;;8.27;;
49340;SDS011;35209;51.050;13.678;2023-04-22T02:09:47;9.32;;;7.68;;
49340;SDS011;35209;51.050;13.678;2023-04-22T02:14:51;9.77;;;8.88;;
49340;SDS011;35209;51.050;13.678;2023-04-22T02:19:53;9.32;;;8.48;;
49340;SDS011;35209;51.050;13.678;2023-04-22T02:24:56;9.18;;;8.38;;
49340;SDS011;35209;51.050;13.678;2023-04-22T02:29:57;12.05;;;8.27;;
49340;SDS011;35209;51.050;13.678;2023-04-22T02:34:59;10.10;;;9.20;;
49340;SDS011;35209;51.050;13.678;2023-04-22T02:40:02;14.88;;;10.48;;
49340;SDS011;35209;51.050;13.678;2023-04-22T02:45:05;13.00;;;10.00;;
49340;SDS011;35209;51.050;13.678;2023-04-22T02:50:07;10.93;;;9.68;;
49340;SDS011;35209;51.050;13.678;2023-04-22T02:55:09;10.77;;;9.98;;
49340;SDS011;35209;51.050;13.678;2023-04-22T03:00:11;12.60;;;9.98;;
49340;SDS011;35209;51.050;13.678;2023-04-22T03:05:14;9.95;;;9.15;;
49340;SDS011;35209;51.050;13.678;2023-04-22T03:10:16;11.00;;;10.13;;
49340;SDS011;35209;51.050;13.678;2023-04-22T03:15:18;11.40;;;10.27;;
49340;SDS011;35209;51.050;13.678;2023-04-22T03:20:22;11.98;;;10.38;;
49340;SDS011;35209;51.050;13.678;2023-04-22T03:25:24;11.73;;;10.48;;
49340;SDS011;35209;51.050;13.678;2023-04-22T03:30:28;11.73;;;10.73;;
49340;SDS011;35209;51.050;13.678;2023-04-22T03:35:31;13.00;;;11.43;;
49340;SDS011;35209;51.050;13.678;2023-04-22T03:40:35;12.30;;;11.27;;
49340;SDS011;35209;51.050;13.678;2023-04-22T03:45:44;12.48;;;11.48;;
49340;SDS011;35209;51.050;13.678;2023-04-22T03:50:54;13.00;;;11.95;;
49340;SDS011;35209;51.050;13.678;2023-04-22T03:55:57;19.58;;;13.55;;
49340;SDS011;35209;51.050;13.678;2023-04-22T04:00:59;16.17;;;12.38;;
49340;SDS011;35209;51.050;13.678;2023-04-22T04:06:01;13.10;;;11.80;;
49340;SDS011;35209;51.050;13.678;2023-04-22T04:11:04;13.70;;;11.77;;
49340;SDS011;35209;51.050;13.678;2023-04-22T04:16:06;13.18;;;11.90;;
49340;SDS011;35209;51.050;13.678;2023-04-22T04:21:11;12.38;;;11.25;;
49340;SDS011;35209;51.050;13.678;2023-04-22T04:26:19;12.15;;;11.13;;
49340;SDS011;35209;51.050;13.678;2023-04-22T04:31:26;12.45;;;11.45;;
49340;SDS011;35209;51.050;13.678;2023-04-22T04:36:32;12.35;;;11.18;;
49340;SDS011;35209;51.050;13.678;2023-04-22T04:41:45;11.60;;;10.77;;
49340;SDS011;35209;51.050;13.678;2023-04-22T04:46:50;11.70;;;10.80;;
49340;SDS011;35209;51.050;13.678;2023-04-22T04:51:52;11.98;;;10.75;;
49340;SDS011;35209;51.050;13.678;2023-04-22T04:56:54;10.15;;;9.35;;
49340;SDS011;35209;51.050;13.678;2023-04-22T05:01:58;10.63;;;9.82;;
49340;SDS011;35209;51.050;13.678;2023-04-22T05:07:03;10.93;;;10.02;;
49340;SDS011;35209;51.050;13.678;2023-04-22T05:12:07;11.80;;;10.80;;
49340;SDS011;35209;51.050;13.678;2023-04-22T05:17:10;14.35;;;9.90;;
49340;SDS011;35209;51.050;13.678;2023-04-22T05:22:12;13.20;;;9.27;;
49340;SDS011;35209;51.050;13.678;2023-04-22T05:27:14;8.77;;;8.07;;
49340;SDS011;35209;51.050;13.678;2023-04-22T05:32:16;9.20;;;8.20;;
49340;SDS011;35209;51.050;13.678;2023-04-22T05:37:18;8.48;;;7.82;;
49340;SDS011;35209;51.050;13.678;2023-04-22T05:42:21;8.77;;;8.13;;
49340;SDS011;35209;51.050;13.678;2023-04-22T05:47:23;8.55;;;7.72;;
49340;SDS011;35209;51.050;13.678;2023-04-22T05:52:25;8.88;;;7.80;;
49340;SDS011;35209;51.050;13.678;2023-04-22T05:57:37;7.82;;;7.07;;
49340;SDS011;35209;51.050;13.678;2023-04-22T06:02:45;8.50;;;7.30;;
49340;SDS011;35209;51.050;13.678;2023-04-22T06:07:47;10.65;;;6.82;;
49340;SDS011;35209;51.050;13.678;2023-04-22T06:12:49;7.43;;;6.80;;
49340;SDS011;35209;51.050;13.678;2023-04-22T06:17:51;7.47;;;6.88;;
49340;SDS011;35209;51.050;13.678;2023-04-22T06:22:53;7.28;;;6.68;;
49340;SDS011;35209;51.050;13.678;2023-04-22T06:27:55;7.78;;;7.18;;
49340;SDS011;35209;51.050;13.678;2023-04-22T06:32:57;7.57;;;6.82;;
49340;SDS011;35209;51.050;13.678;2023-04-22T06:37:59;7.20;;;6.60;;
49340;SDS011;35209;51.050;13.678;2023-04-22T06:43:07;6.43;;;5.90;;
49340;SDS011;35209;51.050;13.678;2023-04-22T06:48:27;11.25;;;7.32;;
49340;SDS011;35209;51.050;13.678;2023-04-22T06:53:52;7.85;;;7.15;;
49340;SDS011;35209;51.050;13.678;2023-04-22T06:58:58;8.40;;;7.70;;
49340;SDS011;35209;51.050;13.678;2023-04-22T07:04:00;8.98;;;7.25;;
49340;SDS011;35209;51.050;13.678;2023-04-22T07:09:02;7.45;;;6.85;;
49340;SDS011;35209;51.050;13.678;2023-04-22T07:14:04;6.32;;;5.82;;
49340;SDS011;35209;51.050;13.678;2023-04-22T07:19:06;7.65;;;6.95;;
49340;SDS011;35209;51.050;13.678;2023-04-22T07:24:08;10.30;;;6.82;;
49340;SDS011;35209;51.050;13.678;2023-04-22T07:29:13;7.07;;;6.45;;
49340;SDS011;35209;51.050;13.678;2023-04-22T07:34:16;8.07;;;6.70;;
49340;SDS011;35209;51.050;13.678;2023-04-22T07:39:18;7.05;;;6.03;;
49340;SDS011;35209;51.050;13.678;2023-04-22T07:44:20;6.63;;;5.88;;
49340;SDS011;35209;51.050;13.678;2023-04-22T07:49:22;7.32;;;6.60;;
49340;SDS011;35209;51.050;13.678;2023-04-22T07:54:24;9.40;;;6.25;;
49340;SDS011;35209;51.050;13.678;2023-04-22T07:59:26;6.82;;;6.13;;
49340;SDS011;35209;51.050;13.678;2023-04-22T08:04:28;9.73;;;5.88;;
49340;SDS011;35209;51.050;13.678;2023-04-22T08:09:30;5.78;;;5.28;;
49340;SDS011;35209;51.050;13.678;2023-04-22T08:14:31;6.18;;;5.60;;
49340;SDS011;35209;51.050;13.678;2023-04-22T08:19:33;6.57;;;5.82;;
49340;SDS011;35209;51.050;13.678;2023-04-22T08:24:35;5.93;;;5.43;;
49340;SDS011;35209;51.050;13.678;2023-04-22T08:29:37;8.40;;;5.63;;
49340;SDS011;35209;51.050;13.678;2023-04-22T08:34:39;7.63;;;6.10;;
49340;SDS011;35209;51.050;13.678;2023-04-22T08:39:41;5.80;;;5.22;;
49340;SDS011;35209;51.050;13.678;2023-04-22T08:44:42;6.15;;;5.18;;
49340;SDS011;35209;51.050;13.678;2023-04-22T08:49:45;7.90;;;5.35;;
49340;SDS011;35209;51.050;13.678;2023-04-22T08:54:47;5.60;;;5.10;;
49340;SDS011;35209;51.050;13.678;2023-04-22T08:59:49;6.28;;;4.85;;
49340;SDS011;35209;51.050;13.678;2023-04-22T09:04:52;5.38;;;4.55;;
49340;SDS011;35209;51.050;13.678;2023-04-22T09:09:54;5.15;;;4.20;;
49340;SDS011;35209;51.050;13.678;2023-04-22T09:14:57;6.93;;;4.30;;
49340;SDS011;35209;51.050;13.678;2023-04-22T09:20:04;6.82;;;4.70;;
49340;SDS011;35209;51.050;13.678;2023-04-22T09:25:14;6.18;;;4.47;;
49340;SDS011;35209;51.050;13.678;2023-04-22T09:30:24;8.95;;;4.57;;
49340;SDS011;35209;51.050;13.678;2023-04-22T09:35:31;4.32;;;3.92;;
49340;SDS011;35209;51.050;13.678;2023-04-22T09:40:34;6.78;;;3.42;;
49340;SDS011;35209;51.050;13.678;2023-04-22T09:45:38;9.40;;;3.53;;
49340;SDS011;35209;51.050;13.678;2023-04-22T09:50:43;5.40;;;3.83;;
49340;SDS011;35209;51.050;13.678;2023-04-22T09:55:56;3.75;;;3.15;;
49340;SDS011;35209;51.050;13.678;2023-04-22T10:00:58;4.45;;;3.38;;
49340;SDS011;35209;51.050;13.678;2023-04-22T10:05:59;5.88;;;3.08;;
49340;SDS011;35209;51.050;13.678;2023-04-22T10:11:01;5.22;;;2.80;;
49340;SDS011;35209;51.050;13.678;2023-04-22T10:16:03;5.15;;;2.22;;
49340;SDS011;35209;51.050;13.678;2023-04-22T10:21:07;4.03;;;2.70;;
49340;SDS011;35209;51.050;13.678;2023-04-22T10:26:09;6.05;;;2.63;;
49340;SDS011;35209;51.050;13.678;2023-04-22T10:31:21;5.35;;;2.85;;
49340;SDS011;35209;51.050;13.678;2023-04-22T10:36:23;5.20;;;2.67;;
49340;SDS011;35209;51.050;13.678;2023-04-22T10:41:27;5.38;;;2.58;;
49340;SDS011;35209;51.050;13.678;2023-04-22T10:51:41;7.35;;;2.50;;
49340;SDS011;35209;51.050;13.678;2023-04-22T11:02:06;4.10;;;3.08;;
49340;SDS011;35209;51.050;13.678;2023-04-22T11:17:35;4.47;;;2.88;;
49340;SDS011;35209;51.050;13.678;2023-04-22T11:22:40;5.35;;;2.75;;
49340;SDS011;35209;51.050;13.678;2023-04-22T11:27:43;3.90;;;2.95;;
49340;SDS011;35209;51.050;13.678;2023-04-22T11:32:50;4.43;;;3.20;;
49340;SDS011;35209;51.050;13.678;2023-04-22T11:37:57;4.55;;;2.97;;
49340;SDS011;35209;51.050;13.678;2023-04-22T11:43:01;5.30;;;3.22;;
49340;SDS011;35209;51.050;13.678;2023-04-22T11:48:05;5.53;;;3.33;;
49340;SDS011;35209;51.050;13.678;2023-04-22T11:53:12;4.07;;;2.70;;
49340;SDS011;35209;51.050;13.678;2023-04-22T11:58:25;5.22;;;2.78;;
49340;SDS011;35209;51.050;13.678;2023-04-22T12:03:28;5.03;;;3.60;;
49340;SDS011;35209;51.050;13.678;2023-04-22T12:08:38;6.40;;;3.50;;
49340;SDS011;35209;51.050;13.678;2023-04-22T12:13:43;3.95;;;3.47;;
49340;SDS011;35209;51.050;13.678;2023-04-22T12:18:51;6.18;;;3.75;;
49340;SDS011;35209;51.050;13.678;2023-04-22T12:23:56;3.53;;;3.15;;
49340;SDS011;35209;51.050;13.678;2023-04-22T12:29:05;5.82;;;3.42;;
49340;SDS011;35209;51.050;13.678;2023-04-22T12:34:07;3.70;;;3.08;;
49340;SDS011;35209;51.050;13.678;2023-04-22T12:39:09;4.93;;;3.90;;
49340;SDS011;35209;51.050;13.678;2023-04-22T12:44:11;5.38;;;3.33;;
49340;SDS011;35209;51.050;13.678;2023-04-22T12:49:12;4.93;;;2.95;;
49340;SDS011;35209;51.050;13.678;2023-04-22T12:54:14;6.68;;;3.13;;
49340;SDS011;35209;51.050;13.678;2023-04-22T12:59:16;5.82;;;3.42;;
49340;SDS011;35209;51.050;13.678;2023-04-22T13:04:19;7.90;;;3.40;;
49340;SDS011;35209;51.050;13.678;2023-04-22T13:09:22;3.35;;;2.90;;
49340;SDS011;35209;51.050;13.678;2023-04-22T13:14:24;4.07;;;3.05;;
49340;SDS011;35209;51.050;13.678;2023-04-22T13:19:27;3.38;;;2.80;;
49340;SDS011;35209;51.050;13.678;2023-04-22T13:24:29;5.63;;;2.60;;
49340;SDS011;35209;51.050;13.678;2023-04-22T13:29:32;4.97;;;2.50;;
49340;SDS011;35209;51.050;13.678;2023-04-22T13:34:34;4.40;;;3.00;;
49340;SDS011;35209;51.050;13.678;2023-04-22T13:39:36;4.47;;;2.72;;
49340;SDS011;35209;51.050;13.678;2023-04-22T13:44:37;3.25;;;2.45;;
49340;SDS011;35209;51.050;13.678;2023-04-22T13:49:39;5.93;;;3.13;;
49340;SDS011;35209;51.050;13.678;2023-04-22T13:54:41;4.43;;;2.55;;
49340;SDS011;35209;51.050;13.678;2023-04-22T13:59:43;5.68;;;2.75;;
49340;SDS011;35209;51.050;13.678;2023-04-22T14:04:45;3.08;;;2.47;;
49340;SDS011;35209;51.050;13.678;2023-04-22T14:09:47;6.22;;;2.97;;
49340;SDS011;35209;51.050;13.678;2023-04-22T14:14:49;3.30;;;2.35;;
49340;SDS011;35209;51.050;13.678;2023-04-22T14:19:50;3.83;;;2.85;;
49340;SDS011;35209;51.050;13.678;2023-04-22T14:24:52;6.60;;;2.80;;
49340;SDS011;35209;51.050;13.678;2023-04-22T14:29:54;4.57;;;2.90;;
49340;SDS011;35209;51.050;13.678;2023-04-22T14:34:56;4.78;;;2.83;;
49340;SDS011;35209;51.050;13.678;2023-04-22T14:39:58;4.55;;;2.95;;
49340;SDS011;35209;51.050;13.678;2023-04-22T14:44:59;8.15;;;7.35;;
49340;SDS011;35209;51.050;13.678;2023-04-22T14:50:01;6.30;;;3.08;;
49340;SDS011;35209;51.050;13.678;2023-04-22T14:55:04;6.63;;;4.88;;
49340;SDS011;35209;51.050;13.678;2023-04-22T15:00:23;4.50;;;3.30;;
49340;SDS011;35209;51.050;13.678;2023-04-22T15:05:25;3.40;;;2.80;;
49340;SDS011;35209;51.050;13.678;2023-04-22T15:10:27;5.38;;;2.72;;
49340;SDS011;35209;51.050;13.678;2023-04-22T15:15:29;3.20;;;2.75;;
49340;SDS011;35209;51.050;13.678;2023-04-22T15:20:30;3.75;;;2.88;;
49340;SDS011;35209;51.050;13.678;2023-04-22T15:25:33;3.80;;;3.33;;
49340;SDS011;35209;51.050;13.678;2023-04-22T15:30:37;4.78;;;3.70;;
49340;SDS011;35209;51.050;13.678;2023-04-22T15:35:41;7.93;;;4.05;;
49340;SDS011;35209;51.050;13.678;2023-04-22T15:40:45;5.70;;;3.22;;
49340;SDS011;35209;51.050;13.678;2023-04-22T15:45:47;5.57;;;3.35;;
49340;SDS011;35209;51.050;13.678;2023-04-22T15:50:49;4.07;;;3.53;;
49340;SDS011;35209;51.050;13.678;2023-04-22T15:55:51;4.22;;;3.55;;
49340;SDS011;35209;51.050;13.678;2023-04-22T16:00:52;4.30;;;3.90;;
49340;SDS011;35209;51.050;13.678;2023-04-22T16:05:56;4.20;;;3.00;;
49340;SDS011;35209;51.050;13.678;2023-04-22T16:10:58;4.90;;;3.65;;
49340;SDS011;35209;51.050;13.678;2023-04-22T16:16:00;4.07;;;3.70;;
49340;SDS011;35209;51.050;13.678;2023-04-22T16:21:02;6.18;;;3.88;;
49340;SDS011;35209;51.050;13.678;2023-04-22T16:26:04;8.68;;;5.93;;
49340;SDS011;35209;51.050;13.678;2023-04-22T16:31:06;5.63;;;5.13;;
49340;SDS011;35209;51.050;13.678;2023-04-22T16:36:09;7.47;;;4.22;;
49340;SDS011;35209;51.050;13.678;2023-04-22T16:41:11;4.82;;;3.92;;
49340;SDS011;35209;51.050;13.678;2023-04-22T16:46:12;6.40;;;4.78;;
49340;SDS011;35209;51.050;13.678;2023-04-22T16:51:14;5.32;;;4.82;;
49340;SDS011;35209;51.050;13.678;2023-04-22T16:56:16;6.78;;;4.63;;
49340;SDS011;35209;51.050;13.678;2023-04-22T17:01:18;4.65;;;4.10;;
49340;SDS011;35209;51.050;13.678;2023-04-22T17:06:20;9.90;;;3.88;;
49340;SDS011;35209;51.050;13.678;2023-04-22T17:11:22;5.00;;;3.88;;
49340;SDS011;35209;51.050;13.678;2023-04-22T17:16:24;5.55;;;4.22;;
49340;SDS011;35209;51.050;13.678;2023-04-22T17:21:26;5.70;;;3.78;;
49340;SDS011;35209;51.050;13.678;2023-04-22T17:26:29;6.03;;;4.25;;
49340;SDS011;35209;51.050;13.678;2023-04-22T17:31:31;7.22;;;4.65;;
49340;SDS011;35209;51.050;13.678;2023-04-22T17:36:34;6.10;;;4.03;;
49340;SDS011;35209;51.050;13.678;2023-04-22T17:41:36;5.85;;;4.05;;
49340;SDS011;35209;51.050;13.678;2023-04-22T17:46:39;4.68;;;4.28;;
49340;SDS011;35209;51.050;13.678;2023-04-22T17:51:42;5.05;;;4.55;;
49340;SDS011;35209;51.050;13.678;2023-04-22T17:56:44;5.18;;;4.68;;
49340;SDS011;35209;51.050;13.678;2023-04-22T18:01:45;6.30;;;5.68;;
49340;SDS011;35209;51.050;13.678;2023-04-22T18:06:47;6.82;;;5.85;;
49340;SDS011;35209;51.050;13.678;2023-04-22T18:11:49;6.40;;;5.82;;
49340;SDS011;35209;51.050;13.678;2023-04-22T18:16:51;7.20;;;6.38;;
49340;SDS011;35209;51.050;13.678;2023-04-22T18:21:53;7.65;;;6.90;;
49340;SDS011;35209;51.050;13.678;2023-04-22T18:27:00;8.25;;;7.55;;
49340;SDS011;35209;51.050;13.678;2023-04-22T18:32:03;9.68;;;8.38;;
49340;SDS011;35209;51.050;13.678;2023-04-22T18:37:05;10.10;;;8.68;;
49340;SDS011;35209;51.050;13.678;2023-04-22T18:42:07;10.10;;;8.88;;
49340;SDS011;35209;51.050;13.678;2023-04-22T18:47:09;8.00;;;7.30;;
49340;SDS011;35209;51.050;13.678;2023-04-22T18:52:11;11.18;;;8.35;;
49340;SDS011;35209;51.050;13.678;2023-04-22T18:57:13;8.98;;;8.07;;
49340;SDS011;35209;51.050;13.678;2023-04-22T19:02:15;9.88;;;8.25;;
49340;SDS011;35209;51.050;13.678;2023-04-22T19:07:16;10.77;;;9.77;;
49340;SDS011;35209;51.050;13.678;2023-04-22T19:12:18;9.18;;;8.48;;
49340;SDS011;35209;51.050;13.678;2023-04-22T19:17:20;9.20;;;8.07;;
49340;SDS011;35209;51.050;13.678;2023-04-22T19:22:22;10.85;;;9.85;;
49340;SDS011;35209;51.050;13.678;2023-04-22T19:27:24;9.85;;;8.95;;
49340;SDS011;35209;51.050;13.678;2023-04-22T19:32:27;9.98;;;9.20;;
49340;SDS011;35209;51.050;13.678;2023-04-22T19:37:29;12.20;;;10.50;;
49340;SDS011;35209;51.050;13.678;2023-04-22T19:42:30;10.27;;;9.45;;
49340;SDS011;35209;51.050;13.678;2023-04-22T19:47:32;10.98;;;9.70;;
49340;SDS011;35209;51.050;13.678;2023-04-22T19:52:35;11.25;;;8.35;;
49340;SDS011;35209;51.050;13.678;2023-04-22T19:57:41;10.30;;;9.27;;
49340;SDS011;35209;51.050;13.678;2023-04-22T20:02:44;11.25;;;10.15;;
49340;SDS011;35209;51.050;13.678;2023-04-22T20:07:46;11.75;;;10.55;;
49340;SDS011;35209;51.050;13.678;2023-04-22T20:12:50;17.77;;;12.55;;
49340;SDS011;35209;51.050;13.678;2023-04-22T20:17:52;21.48;;;15.35;;
49340;SDS011;35209;51.050;13.678;2023-04-22T20:22:55;14.40;;;13.02;;
49340;SDS011;35209;51.050;13.678;2023-04-22T20:28:08;26.98;;;17.77;;
49340;SDS011;35209;51.050;13.678;2023-04-22T20:33:11;28.17;;;20.50;;
49340;SDS011;35209;51.050;13.678;2023-04-22T20:38:17;33.80;;;21.25;;
49340;SDS011;35209;51.050;13.678;2023-04-22T20:43:20;22.23;;;18.27;;
49340;SDS011;35209;51.050;13.678;2023-04-22T20:48:22;21.70;;;18.35;;
49340;SDS011;35209;51.050;13.678;2023-04-22T20:53:24;26.70;;;17.95;;
49340;SDS011;35209;51.050;13.678;2023-04-22T20:58:27;18.20;;;16.35;;
49340;SDS011;35209;51.050;13.678;2023-04-22T21:03:29;23.80;;;17.17;;
49340;SDS011;35209;51.050;13.678;2023-04-22T21:08:31;26.85;;;24.02;;
49340;SDS011;35209;51.050;13.678;2023-04-22T21:13:35;27.27;;;24.45;;
49340;SDS011;35209;51.050;13.678;2023-04-22T21:18:38;20.27;;;18.67;;
49340;SDS011;35209;51.050;13.678;2023-04-22T21:23:43;17.67;;;16.08;;
49340;SDS011;35209;51.050;13.678;2023-04-22T21:28:46;15.85;;;14.65;;
49340;SDS011;35209;51.050;13.678;2023-04-22T21:33:48;16.10;;;12.15;;
49340;SDS011;35209;51.050;13.678;2023-04-22T21:38:49;11.00;;;9.93;;
49340;SDS011;35209;51.050;13.678;2023-04-22T21:43:51;12.23;;;8.73;;
49340;SDS011;35209;51.050;13.678;2023-04-22T21:48:53;9.48;;;8.48;;
49340;SDS011;35209;51.050;13.678;2023-04-22T21:53:55;7.65;;;6.88;;
49340;SDS011;35209;51.050;13.678;2023-04-22T21:58:56;9.93;;;8.98;;
49340;SDS011;35209;51.050;13.678;2023-04-22T22:03:58;8.30;;;7.68;;
49340;SDS011;35209;51.050;13.678;2023-04-22T22:09:00;9.10;;;7.53;;
49340;SDS011;35209;51.050;13.678;2023-04-22T22:14:02;8.75;;;7.90;;
49340;SDS011;35209;51.050;13.678;2023-04-22T22:19:04;7.90;;;7.20;;
49340;SDS011;35209;51.050;13.678;2023-04-22T22:24:06;7.55;;;6.53;;
49340;SDS011;35209;51.050;13.678;2023-04-22T22:29:09;8.35;;;6.68;;
49340;SDS011;35209;51.050;13.678;2023-04-22T22:34:15;7.70;;;6.00;;
49340;SDS011;35209;51.050;13.678;2023-04-22T22:39:17;7.38;;;6.72;;
49340;SDS011;35209;51.050;13.678;2023-04-22T22:44:19;7.57;;;6.78;;
49340;SDS011;35209;51.050;13.678;2023-04-22T22:49:20;7.53;;;6.78;;
49340;SDS011;35209;51.050;13.678;2023-04-22T22:54:22;9.35;;;6.78;;
49340;SDS011;35209;51.050;13.678;2023-04-22T22:59:24;8.15;;;7.35;;
49340;SDS011;35209;51.050;13.678;2023-04-22T23:04:26;11.27;;;7.57;;
49340;SDS011;35209;51.050;13.678;2023-04-22T23:09:28;7.40;;;6.70;;
49340;SDS011;35209;51.050;13.678;2023-04-22T23:14:30;7.18;;;6.57;;
49340;SDS011;35209;51.050;13.678;2023-04-22T23:19:33;8.13;;;7.00;;
49340;SDS011;35209;51.050;13.678;2023-04-22T23:24:35;7.13;;;6.32;;
49340;SDS011;35209;51.050;13.678;2023-04-22T23:29:37;8.63;;;6.00;;
49340;SDS011;35209;51.050;13.678;2023-04-22T23:34:39;6.22;;;5.65;;
49340;SDS011;35209;51.050;13.678;2023-04-22T23:39:45;8.70;;;6.00;;
49340;SDS011;35209;51.050;13.678;2023-04-22T23:44:47;5.68;;;5.22;;
49340;SDS011;35209;51.050;13.678;2023-04-22T23:49:48;7.00;;;6.32;;
49340;SDS011;35209;51.050;13.678;2023-04-22T23:54:50;6.78;;;6.20;;
49340;SDS011;35209;51.050;13.678;2023-04-22T23:59:52;6.15;;;5.53;;
